Time;durP1;ratioP1;P1;durP2;ratioP2;P2;SDS_P1;SDS_P2;PMS_P1;PMS_P2;Temp;Humidity;BMP_temperature;BMP_pressure;BME280_temperature;BME280_humidity;BME280_pressure;Samples;Min_cycle;Max_cycle;Signal;HPM_P1;HPM_P2
2022/08/31 00:04:01;;;;;;;;;;;18.40;99.90;;;;;;5064364;28;19959;-86
2022/08/31 00:06:29;;;;;;;;;;;18.30;99.90;;;;;;5064418;28;19921;-86
2022/08/31 00:08:57;;;;;;;;;;;18.20;99.90;;;;;;5064047;28;20263;-86
2022/08/31 00:11:29;;;;;;;;;;;18.20;99.90;;;;;;5064332;28;20279;-85
2022/08/31 00:13:56;;;;;;;;;;;18.10;99.90;;;;;;5064293;28;19921;-86
2022/08/31 00:16:24;;;;;;;;;;;18.20;99.90;;;;;;5064444;28;20235;-84
2022/08/31 00:18:52;;;;;;;;;;;18.10;99.90;;;;;;5064522;28;19983;-86
2022/08/31 00:21:20;;;;;;;;;;;18.10;99.90;;;;;;5064405;28;19948;-87
2022/08/31 00:23:47;;;;;;;;;;;18.10;99.90;;;;;;5063388;28;19928;-86
2022/08/31 00:26:15;;;;;;;;;;;18.10;99.90;;;;;;5064018;28;19983;-86
2022/08/31 00:28:42;;;;;;;;;;;18.10;99.90;;;;;;5064009;28;19921;-86
2022/08/31 00:31:09;;;;;;;;;;;18.10;99.90;;;;;;5064125;28;19921;-86
2022/08/31 00:33:36;;;;;;;;;;;18.00;99.90;;;;;;5063706;28;20169;-87
2022/08/31 00:36:03;;;;;;;;;;;18.00;99.90;;;;;;5064183;28;20131;-87
2022/08/31 00:38:30;;;;;;;;;;;18.00;99.90;;;;;;5064658;28;20165;-86
2022/08/31 00:41:20;;;;;;;;;;;17.90;99.90;;;;;;5046026;28;19987;-87
2022/08/31 00:43:49;;;;;;;;;;;17.90;99.90;;;;;;5063152;28;19920;-86
2022/08/31 00:46:17;;;;;;;;;;;17.90;99.90;;;;;;5064074;28;19920;-86
2022/08/31 00:48:45;;;;;;;;;;;17.80;99.90;;;;;;5063805;28;19920;-86
2022/08/31 00:51:12;;;;;;;;;;;17.80;99.90;;;;;;5064071;28;20286;-86
2022/08/31 00:53:39;;;;;;;;;;;17.80;99.90;;;;;;5063099;28;20000;-86
2022/08/31 00:56:07;;;;;;;;;;;17.70;99.90;;;;;;5063470;28;20322;-85
2022/08/31 00:58:34;;;;;;;;;;;17.70;99.90;;;;;;5063670;28;20159;-84
2022/08/31 01:01:03;;;;;;;;;;;17.60;99.90;;;;;;5066827;28;19956;-85
2022/08/31 01:03:30;;;;;;;;;;;17.60;99.90;;;;;;5067000;28;19947;-86
2022/08/31 01:05:56;;;;;;;;;;;17.60;99.90;;;;;;5070697;28;19923;-84
2022/08/31 01:08:23;;;;;;;;;;;17.60;99.90;;;;;;5070885;28;19921;-84
2022/08/31 01:10:50;;;;;;;;;;;17.60;99.90;;;;;;5066819;28;19928;-85
2022/08/31 01:13:17;;;;;;;;;;;17.50;99.90;;;;;;5066859;28;19996;-85
2022/08/31 01:15:46;;;;;;;;;;;17.50;99.90;;;;;;5066744;28;19921;-85
2022/08/31 01:18:15;;;;;;;;;;;17.50;99.90;;;;;;5067141;28;19995;-85
2022/08/31 01:20:47;;;;;;;;;;;17.50;99.90;;;;;;5066845;28;19927;-84
2022/08/31 01:23:17;;;;;;;;;;;17.50;99.90;;;;;;5066549;28;19921;-84
2022/08/31 01:25:45;;;;;;;;;;;17.40;99.90;;;;;;5066593;28;19920;-84
2022/08/31 01:28:12;;;;;;;;;;;17.40;99.90;;;;;;5067083;28;19927;-85
2022/08/31 01:30:40;;;;;;;;;;;17.40;99.90;;;;;;5066809;28;19946;-85
2022/08/31 01:33:06;;;;;;;;;;;17.40;99.90;;;;;;5065833;28;19948;-85
2022/08/31 01:35:33;;;;;;;;;;;17.40;99.90;;;;;;5046541;28;19948;-85
2022/08/31 01:38:01;;;;;;;;;;;17.40;99.90;;;;;;5046514;28;19951;-85
2022/08/31 01:40:33;;;;;;;;;;;17.40;99.90;;;;;;5047460;28;19928;-86
2022/08/31 01:42:59;;;;;;;;;;;17.30;99.90;;;;;;5046448;28;19944;-86
2022/08/31 01:45:26;;;;;;;;;;;17.20;99.90;;;;;;5053954;28;19921;-85
2022/08/31 01:47:53;;;;;;;;;;;17.20;99.90;;;;;;5066460;28;19951;-85
2022/08/31 01:50:20;;;;;;;;;;;17.20;99.90;;;;;;5046562;28;19921;-86
2022/08/31 01:52:46;;;;;;;;;;;17.10;99.90;;;;;;5046004;28;19992;-86
2022/08/31 01:55:13;;;;;;;;;;;17.10;99.90;;;;;;5046222;28;19945;-85
2022/08/31 01:57:41;;;;;;;;;;;17.10;99.90;;;;;;5046321;28;19921;-85
2022/08/31 02:00:09;;;;;;;;;;;17.10;99.90;;;;;;5059700;28;20246;-85
2022/08/31 02:02:36;;;;;;;;;;;17.10;99.90;;;;;;5065956;28;19928;-85
2022/08/31 02:05:02;;;;;;;;;;;17.10;99.90;;;;;;5065863;28;19921;-85
2022/08/31 02:07:29;;;;;;;;;;;17.00;99.90;;;;;;5066096;28;19940;-85
2022/08/31 02:09:56;;;;;;;;;;;17.10;99.90;;;;;;5046035;28;19944;-85
2022/08/31 02:12:22;;;;;;;;;;;17.00;99.90;;;;;;5045084;28;19940;-84
2022/08/31 02:14:50;;;;;;;;;;;17.00;99.90;;;;;;5045780;28;20184;-86
2022/08/31 02:17:17;;;;;;;;;;;17.00;99.90;;;;;;5046058;28;20124;-85
2022/08/31 02:19:44;;;;;;;;;;;16.90;99.90;;;;;;5045842;28;19921;-85
2022/08/31 02:22:11;;;;;;;;;;;16.90;99.90;;;;;;5045942;28;19952;-86
2022/08/31 02:24:37;;;;;;;;;;;16.90;99.90;;;;;;5045254;28;19941;-85
2022/08/31 02:27:04;;;;;;;;;;;16.90;99.90;;;;;;5045687;28;19952;-86
2022/08/31 02:29:31;;;;;;;;;;;16.90;99.90;;;;;;5068004;22;19991;-70
2022/08/31 02:31:59;;;;;;;;;;;16.80;99.90;;;;;;5069119;28;19957;-70
2022/08/31 02:34:26;;;;;;;;;;;16.90;99.90;;;;;;5064748;28;20127;-70
2022/08/31 02:36:53;;;;;;;;;;;16.90;99.90;;;;;;5067876;28;19921;-70
2022/08/31 02:39:20;;;;;;;;;;;16.90;99.90;;;;;;5064118;28;19920;-70
2022/08/31 02:41:46;;;;;;;;;;;16.90;99.90;;;;;;5064787;28;20200;-70
2022/08/31 02:44:13;;;;;;;;;;;16.90;99.90;;;;;;5065119;28;19984;-69
2022/08/31 02:46:40;;;;;;;;;;;16.90;99.90;;;;;;5063983;28;19980;-69
2022/08/31 02:49:08;;;;;;;;;;;16.90;99.90;;;;;;5063991;28;19984;-69
2022/08/31 02:51:34;;;;;;;;;;;16.90;99.90;;;;;;5064641;28;19992;-69
2022/08/31 02:54:01;;;;;;;;;;;16.90;99.90;;;;;;5064574;28;20167;-70
2022/08/31 02:56:28;;;;;;;;;;;16.90;99.90;;;;;;5064510;28;20235;-70
2022/08/31 02:58:54;;;;;;;;;;;16.90;99.90;;;;;;5063541;28;19988;-69
2022/08/31 03:01:21;;;;;;;;;;;16.90;99.90;;;;;;5063617;28;19954;-71
2022/08/31 03:03:48;;;;;;;;;;;16.90;99.90;;;;;;5064369;28;19943;-70
2022/08/31 03:06:17;;;;;;;;;;;16.90;99.90;;;;;;5064305;28;19924;-70
2022/08/31 03:08:43;;;;;;;;;;;16.90;99.90;;;;;;5063952;28;19929;-70
2022/08/31 03:11:10;;;;;;;;;;;16.90;99.90;;;;;;5063727;28;20257;-70
2022/08/31 03:13:37;;;;;;;;;;;16.90;99.90;;;;;;5064113;28;19987;-69
2022/08/31 03:16:04;;;;;;;;;;;16.90;99.90;;;;;;5063402;28;19928;-69
2022/08/31 03:18:31;;;;;;;;;;;16.90;99.90;;;;;;5061119;28;19960;-69
2022/08/31 03:20:57;;;;;;;;;;;16.90;99.90;;;;;;5064063;28;20096;-69
2022/08/31 03:23:25;;;;;;;;;;;16.90;99.90;;;;;;5062533;28;20242;-70
2022/08/31 03:25:52;;;;;;;;;;;16.90;99.90;;;;;;5063570;28;19921;-69
2022/08/31 03:28:19;;;;;;;;;;;16.90;99.90;;;;;;5063688;28;19992;-69
2022/08/31 03:30:45;;;;;;;;;;;16.90;99.90;;;;;;5059587;28;20279;-70
2022/08/31 03:33:12;;;;;;;;;;;16.90;99.90;;;;;;5043772;28;19984;-69
2022/08/31 03:35:42;;;;;;;;;;;16.90;99.90;;;;;;5043523;28;20287;-69
2022/08/31 03:38:09;;;;;;;;;;;16.90;99.90;;;;;;5046995;28;20123;-69
2022/08/31 03:40:37;;;;;;;;;;;16.90;99.90;;;;;;5063647;28;19921;-69
2022/08/31 03:43:03;;;;;;;;;;;16.90;99.90;;;;;;5063585;28;19984;-69
2022/08/31 03:45:30;;;;;;;;;;;16.90;99.90;;;;;;5067540;28;19984;-70
2022/08/31 03:47:58;;;;;;;;;;;16.90;99.90;;;;;;5063196;28;20124;-69
2022/08/31 03:50:25;;;;;;;;;;;16.80;99.90;;;;;;5062978;28;19963;-70
2022/08/31 03:52:52;;;;;;;;;;;16.80;99.90;;;;;;5067408;28;20112;-70
2022/08/31 03:55:19;;;;;;;;;;;16.80;99.90;;;;;;5063805;28;19921;-70
2022/08/31 03:57:47;;;;;;;;;;;16.70;99.90;;;;;;5063287;28;19988;-69
2022/08/31 04:00:14;;;;;;;;;;;16.70;99.90;;;;;;5062192;28;19979;-69
2022/08/31 04:02:41;;;;;;;;;;;16.80;99.90;;;;;;5046599;28;20272;-70
2022/08/31 04:05:08;;;;;;;;;;;16.80;99.90;;;;;;5043686;28;19927;-69
2022/08/31 04:07:36;;;;;;;;;;;16.80;99.90;;;;;;5043295;28;20263;-70
2022/08/31 04:10:02;;;;;;;;;;;16.80;99.90;;;;;;5057754;28;20161;-69
2022/08/31 04:12:29;;;;;;;;;;;16.80;99.90;;;;;;5043206;28;19956;-72
2022/08/31 04:14:57;;;;;;;;;;;16.70;99.90;;;;;;5062260;28;19984;-69
2022/08/31 04:17:24;;;;;;;;;;;16.70;99.90;;;;;;5061732;28;19979;-70
2022/08/31 04:19:50;;;;;;;;;;;16.70;99.90;;;;;;5061496;28;19987;-70
2022/08/31 04:22:17;;;;;;;;;;;16.80;99.90;;;;;;5062052;28;19984;-70
2022/08/31 04:24:43;;;;;;;;;;;16.80;99.90;;;;;;5062017;28;19960;-69
2022/08/31 04:27:10;;;;;;;;;;;16.70;99.90;;;;;;5062670;28;19927;-70
2022/08/31 04:29:38;;;;;;;;;;;16.70;99.90;;;;;;5062431;28;19921;-69
2022/08/31 04:32:06;;;;;;;;;;;16.70;99.90;;;;;;5062554;28;19928;-70
2022/08/31 04:34:33;;;;;;;;;;;16.70;99.90;;;;;;5055227;28;19984;-70
2022/08/31 04:36:59;;;;;;;;;;;16.60;99.90;;;;;;5047448;28;19948;-69
2022/08/31 04:39:26;;;;;;;;;;;16.60;99.90;;;;;;5059575;28;19996;-70
2022/08/31 04:41:52;;;;;;;;;;;16.60;99.90;;;;;;5064838;28;19951;-69
2022/08/31 04:44:19;;;;;;;;;;;16.60;99.90;;;;;;5066448;28;19927;-69
2022/08/31 04:46:46;;;;;;;;;;;16.60;99.90;;;;;;5067012;28;19991;-70
2022/08/31 04:49:14;;;;;;;;;;;16.60;99.90;;;;;;5066752;28;19955;-69
2022/08/31 04:51:41;;;;;;;;;;;16.60;99.90;;;;;;5066907;28;19925;-70
2022/08/31 04:54:09;;;;;;;;;;;16.60;99.90;;;;;;5066467;28;19992;-70
2022/08/31 04:56:38;;;;;;;;;;;16.60;99.90;;;;;;5066586;28;20290;-69
2022/08/31 04:59:06;;;;;;;;;;;16.60;99.90;;;;;;5066458;28;19975;-69
2022/08/31 05:01:33;;;;;;;;;;;16.60;99.90;;;;;;5066669;28;19995;-69
2022/08/31 05:04:01;;;;;;;;;;;16.70;99.90;;;;;;5052626;28;19988;-69
2022/08/31 05:06:30;;;;;;;;;;;16.70;99.90;;;;;;5046504;28;20202;-69
2022/08/31 05:08:58;;;;;;;;;;;16.70;99.90;;;;;;5054866;28;19921;-70
2022/08/31 05:11:25;;;;;;;;;;;16.70;99.90;;;;;;5066684;28;19952;-70
2022/08/31 05:13:52;;;;;;;;;;;16.70;99.90;;;;;;5063770;28;19963;-70
2022/08/31 05:16:19;;;;;;;;;;;16.60;99.90;;;;;;5066548;28;19935;-71
2022/08/31 05:18:47;;;;;;;;;;;16.70;99.90;;;;;;5066150;28;19921;-69
2022/08/31 05:21:14;;;;;;;;;;;16.70;99.90;;;;;;5048447;28;20156;-70
2022/08/31 05:23:43;;;;;;;;;;;16.70;99.90;;;;;;5045751;28;19928;-70
2022/08/31 05:26:09;;;;;;;;;;;16.70;99.90;;;;;;5066118;28;20173;-70
2022/08/31 05:28:36;;;;;;;;;;;16.80;99.90;;;;;;5066020;28;20204;-70
2022/08/31 05:31:03;;;;;;;;;;;16.80;99.90;;;;;;5066172;28;19921;-69
2022/08/31 05:33:29;;;;;;;;;;;16.80;99.90;;;;;;5065574;28;19925;-70
2022/08/31 05:35:56;;;;;;;;;;;16.70;99.90;;;;;;5066110;28;19948;-70
2022/08/31 05:38:23;;;;;;;;;;;16.80;99.90;;;;;;5065205;28;19928;-70
2022/08/31 05:40:53;;;;;;;;;;;16.80;99.90;;;;;;5066007;28;20172;-70
2022/08/31 05:43:20;;;;;;;;;;;16.80;99.90;;;;;;5052114;28;19928;-70
2022/08/31 05:45:46;;;;;;;;;;;16.80;99.90;;;;;;5045819;28;19988;-70
2022/08/31 05:48:13;;;;;;;;;;;16.80;99.90;;;;;;5065523;28;19921;-70
2022/08/31 05:50:40;;;;;;;;;;;16.80;99.90;;;;;;5066024;28;19979;-70
2022/08/31 05:53:07;;;;;;;;;;;16.80;99.90;;;;;;5065953;28;19984;-69
2022/08/31 05:55:34;;;;;;;;;;;16.90;99.90;;;;;;5066025;28;20263;-70
2022/08/31 05:58:02;;;;;;;;;;;16.90;99.90;;;;;;5066216;28;19988;-69
2022/08/31 06:00:36;;;;;;;;;;;16.90;99.90;;;;;;5069925;28;19943;-69
2022/08/31 06:03:02;;;;;;;;;;;16.90;99.90;;;;;;5085817;28;19920;-69
2022/08/31 06:05:29;;;;;;;;;;;17.00;99.90;;;;;;5071308;28;19948;-69
2022/08/31 06:07:56;;;;;;;;;;;17.00;99.90;;;;;;5065978;28;20112;-68
2022/08/31 06:10:24;;;;;;;;;;;17.00;99.90;;;;;;5066182;28;20145;-69
2022/08/31 06:12:50;;;;;;;;;;;17.00;99.90;;;;;;5065976;28;19927;-69
2022/08/31 06:15:19;;;;;;;;;;;17.00;99.90;;;;;;5063286;28;20216;-69
2022/08/31 06:17:46;;;;;;;;;;;17.10;99.90;;;;;;5061219;28;20268;-72
2022/08/31 06:20:14;;;;;;;;;;;17.10;99.90;;;;;;5064361;28;20232;-69
2022/08/31 06:22:45;;;;;;;;;;;17.10;99.90;;;;;;5064157;28;19951;-71
2022/08/31 06:25:18;;;;;;;;;;;17.10;99.90;;;;;;5064283;28;19928;-69
2022/08/31 06:27:48;;;;;;;;;;;17.20;99.90;;;;;;5062757;28;19924;-69
2022/08/31 06:30:20;;;;;;;;;;;17.20;99.90;;;;;;5064577;28;20120;-69
2022/08/31 06:32:48;;;;;;;;;;;17.30;99.90;;;;;;5061100;28;19921;-69
2022/08/31 06:35:15;;;;;;;;;;;17.30;99.90;;;;;;5063646;28;19927;-70
2022/08/31 06:37:42;;;;;;;;;;;17.30;99.90;;;;;;5064005;28;19995;-69
2022/08/31 06:40:09;;;;;;;;;;;17.30;99.90;;;;;;5063938;28;20156;-69
2022/08/31 06:42:35;;;;;;;;;;;17.30;99.90;;;;;;5063620;28;20078;-70
2022/08/31 06:45:02;;;;;;;;;;;17.30;99.90;;;;;;5061427;28;20012;-70
2022/08/31 06:47:29;;;;;;;;;;;17.30;99.90;;;;;;5058404;28;20165;-70
2022/08/31 06:49:58;;;;;;;;;;;17.30;99.90;;;;;;5065648;28;19983;-68
2022/08/31 06:52:25;;;;;;;;;;;17.30;99.90;;;;;;5065066;28;19920;-69
2022/08/31 06:54:58;;;;;;;;;;;17.30;99.90;;;;;;5063496;28;20117;-69
2022/08/31 06:57:25;;;;;;;;;;;17.30;99.90;;;;;;5066574;28;20425;-70
2022/08/31 06:59:52;;;;;;;;;;;17.30;99.90;;;;;;5067262;28;20208;-69
2022/08/31 07:02:19;;;;;;;;;;;17.30;99.90;;;;;;5064402;28;19925;-68
2022/08/31 07:04:45;;;;;;;;;;;17.30;99.90;;;;;;5063875;28;19992;-71
2022/08/31 07:07:13;;;;;;;;;;;17.30;99.90;;;;;;5063667;28;19979;-69
2022/08/31 07:09:40;;;;;;;;;;;17.40;99.90;;;;;;5062148;28;19983;-69
2022/08/31 07:12:07;;;;;;;;;;;17.40;99.90;;;;;;5064417;28;19987;-69
2022/08/31 07:14:34;;;;;;;;;;;17.40;99.90;;;;;;5063822;28;20118;-70
2022/08/31 07:17:02;;;;;;;;;;;17.40;99.90;;;;;;5064274;28;19980;-68
2022/08/31 07:19:29;;;;;;;;;;;17.50;99.90;;;;;;5064091;28;19920;-69
2022/08/31 07:21:56;;;;;;;;;;;17.50;99.90;;;;;;5049540;28;19989;-68
2022/08/31 07:24:27;;;;;;;;;;;17.60;99.90;;;;;;5043624;28;19988;-68
2022/08/31 07:26:56;;;;;;;;;;;17.60;99.90;;;;;;5044497;28;19988;-68
2022/08/31 07:29:23;;;;;;;;;;;17.60;99.90;;;;;;5041280;28;19928;-69
2022/08/31 07:31:51;;;;;;;;;;;17.60;99.90;;;;;;5044040;28;19921;-68
2022/08/31 07:34:18;;;;;;;;;;;17.70;99.90;;;;;;5043739;28;19928;-68
2022/08/31 07:42:46;;;;;;;;;;;17.70;99.90;;;;;;4944084;29;20269;-68
2022/08/31 07:45:20;;;;;;;;;;;17.80;99.90;;;;;;4997082;28;19922;-69
2022/08/31 07:47:47;;;;;;;;;;;17.80;99.90;;;;;;5041882;28;19939;-69
2022/08/31 07:50:14;;;;;;;;;;;17.80;99.90;;;;;;5063158;28;20216;-68
2022/08/31 07:52:43;;;;;;;;;;;17.80;99.90;;;;;;5062934;28;19984;-69
2022/08/31 07:55:12;;;;;;;;;;;17.90;99.90;;;;;;5063564;28;20258;-68
2022/08/31 07:57:42;;;;;;;;;;;18.00;99.90;;;;;;5044902;28;20232;-68
2022/08/31 08:00:10;;;;;;;;;;;18.00;99.90;;;;;;5043352;28;19952;-68
2022/08/31 08:02:39;;;;;;;;;;;18.10;99.90;;;;;;5043487;28;19984;-69
2022/08/31 08:05:07;;;;;;;;;;;18.10;99.90;;;;;;5043745;28;19959;-68
2022/08/31 08:07:34;;;;;;;;;;;18.10;99.90;;;;;;5060491;28;19992;-68
2022/08/31 08:10:02;;;;;;;;;;;18.20;99.90;;;;;;5055936;28;19991;-68
2022/08/31 08:12:35;;;;;;;;;;;18.20;99.90;;;;;;5055317;28;19952;-68
2022/08/31 08:15:02;;;;;;;;;;;18.20;99.90;;;;;;5056046;28;19920;-70
2022/08/31 08:17:29;;;;;;;;;;;18.30;99.90;;;;;;5063828;28;19921;-68
2022/08/31 08:19:55;;;;;;;;;;;18.30;99.90;;;;;;5063663;28;19956;-71
2022/08/31 08:22:23;;;;;;;;;;;18.30;99.90;;;;;;5063038;28;19948;-75
2022/08/31 08:24:50;;;;;;;;;;;18.40;99.90;;;;;;5062588;28;19921;-69
2022/08/31 08:27:17;;;;;;;;;;;18.50;99.90;;;;;;5058371;28;19989;-68
2022/08/31 08:29:44;;;;;;;;;;;18.50;99.90;;;;;;5043144;28;19988;-68
2022/08/31 08:32:11;;;;;;;;;;;18.50;99.90;;;;;;5043265;28;19987;-68
2022/08/31 08:34:42;;;;;;;;;;;18.50;99.90;;;;;;5051425;28;19996;-71
2022/08/31 08:37:09;;;;;;;;;;;18.50;99.90;;;;;;5063175;28;19956;-68
2022/08/31 08:39:36;;;;;;;;;;;18.60;99.90;;;;;;5062317;28;19980;-69
2022/08/31 08:42:03;;;;;;;;;;;18.60;99.90;;;;;;5063003;28;20401;-68
2022/08/31 08:44:31;;;;;;;;;;;18.60;99.90;;;;;;5082580;22;19920;-68
2022/08/31 08:47:01;;;;;;;;;;;18.70;99.90;;;;;;5075751;28;19958;-68
2022/08/31 08:49:34;;;;;;;;;;;18.70;99.90;;;;;;5083183;28;19983;-68
2022/08/31 08:52:02;;;;;;;;;;;18.80;99.90;;;;;;5081924;28;19971;-69
2022/08/31 08:54:31;;;;;;;;;;;18.90;99.90;;;;;;5081692;28;19920;-68
2022/08/31 08:56:59;;;;;;;;;;;19.00;99.90;;;;;;5082832;28;19920;-69
2022/08/31 08:59:27;;;;;;;;;;;19.10;99.90;;;;;;5080275;28;20215;-69
2022/08/31 09:01:56;;;;;;;;;;;19.20;99.90;;;;;;5082874;28;20184;-68
2022/08/31 09:04:34;;;;;;;;;;;19.30;99.90;;;;;;5081877;28;19948;-69
2022/08/31 09:07:08;;;;;;;;;;;19.30;99.90;;;;;;5067466;28;20219;-69
2022/08/31 09:09:37;;;;;;;;;;;19.40;99.90;;;;;;5080516;28;19983;-68
2022/08/31 09:12:24;;;;;;;;;;;19.40;99.90;;;;;;5082681;28;20092;-69
2022/08/31 09:15:10;;;;;;;;;;;19.40;99.90;;;;;;5070547;28;19966;-70
2022/08/31 09:17:41;;;;;;;;;;;19.50;99.90;;;;;;5063556;28;19980;-69
2022/08/31 09:20:11;;;;;;;;;;;19.50;99.90;;;;;;5082258;28;20207;-69
2022/08/31 09:22:45;;;;;;;;;;;19.50;99.90;;;;;;5085587;28;19928;-70
2022/08/31 09:25:14;;;;;;;;;;;19.60;99.90;;;;;;5085113;28;19974;-70
2022/08/31 09:27:45;;;;;;;;;;;19.70;99.90;;;;;;5078268;28;19959;-69
2022/08/31 09:30:12;;;;;;;;;;;19.70;99.90;;;;;;5076875;28;19943;-70
2022/08/31 09:32:39;;;;;;;;;;;19.70;99.90;;;;;;5075084;28;19984;-70
2022/08/31 09:35:08;;;;;;;;;;;19.70;99.90;;;;;;5081055;28;19948;-69
2022/08/31 09:37:43;;;;;;;;;;;19.80;99.90;;;;;;5085001;28;19920;-70
2022/08/31 09:40:14;;;;;;;;;;;19.80;99.90;;;;;;5082268;28;20211;-70
2022/08/31 09:42:42;;;;;;;;;;;19.80;99.90;;;;;;5084103;28;20170;-69
2022/08/31 09:45:15;;;;;;;;;;;19.80;99.90;;;;;;5084887;28;20166;-70
2022/08/31 09:47:47;;;;;;;;;;;19.80;99.90;;;;;;5065784;28;20191;-70
2022/08/31 09:50:24;;;;;;;;;;;19.90;99.90;;;;;;5071501;28;19929;-70
2022/08/31 09:56:02;;;;;;;;;;;20.00;99.90;;;;;;5082745;28;19966;-70
2022/08/31 09:58:29;;;;;;;;;;;20.10;99.90;;;;;;5082647;28;19948;-70
2022/08/31 10:00:56;;;;;;;;;;;20.10;99.90;;;;;;5085047;28;20208;-70
2022/08/31 10:03:28;;;;;;;;;;;20.20;99.90;;;;;;5084742;28;19966;-68
2022/08/31 10:05:55;;;;;;;;;;;20.30;99.90;;;;;;5065391;28;19927;-68
2022/08/31 10:08:33;;;;;;;;;;;20.30;99.90;;;;;;5065800;28;19921;-68
2022/08/31 10:11:05;;;;;;;;;;;20.30;99.90;;;;;;5065751;28;19929;-69
2022/08/31 10:13:35;;;;;;;;;;;20.40;99.90;;;;;;5071489;28;19956;-69
2022/08/31 10:16:13;;;;;;;;;;;20.40;99.90;;;;;;5084920;28;19920;-69
2022/08/31 10:18:49;;;;;;;;;;;20.40;99.90;;;;;;5085423;28;19942;-69
2022/08/31 10:21:20;;;;;;;;;;;20.50;99.90;;;;;;5085234;28;19921;-68
2022/08/31 10:23:55;;;;;;;;;;;20.50;99.90;;;;;;5085267;28;19951;-69
2022/08/31 10:26:32;;;;;;;;;;;20.50;99.90;;;;;;5085055;28;20148;-68
2022/08/31 10:29:01;;;;;;;;;;;20.50;99.90;;;;;;5084865;28;19956;-68
2022/08/31 10:31:30;;;;;;;;;;;20.60;99.90;;;;;;5084934;28;20261;-67
2022/08/31 10:36:44;;;;;;;;;;;20.60;99.90;;;;;;5071622;28;19983;-69
2022/08/31 10:39:18;;;;;;;;;;;20.70;99.90;;;;;;5078625;28;20104;-69
2022/08/31 10:41:48;;;;;;;;;;;20.70;99.90;;;;;;5084160;28;19929;-69
2022/08/31 10:44:17;;;;;;;;;;;20.60;99.90;;;;;;5084086;28;19926;-69
2022/08/31 10:46:43;;;;;;;;;;;20.70;99.90;;;;;;5084055;28;19944;-69
2022/08/31 10:49:10;;;;;;;;;;;20.70;99.90;;;;;;5083225;28;19921;-69
2022/08/31 10:51:41;;;;;;;;;;;20.70;99.90;;;;;;5068528;28;19959;-69
2022/08/31 10:54:23;;;;;;;;;;;20.50;99.90;;;;;;5083362;28;19952;-69
2022/08/31 10:56:57;;;;;;;;;;;20.40;99.90;;;;;;5070379;28;19927;-69
2022/08/31 10:59:31;;;;;;;;;;;20.50;99.90;;;;;;5080520;28;19959;-69
2022/08/31 11:02:01;;;;;;;;;;;20.50;99.90;;;;;;5071337;28;19943;-69
2022/08/31 11:04:42;;;;;;;;;;;20.60;99.90;;;;;;5083476;28;19958;-69
2022/08/31 11:07:14;;;;;;;;;;;20.60;99.90;;;;;;5083787;28;20172;-69
2022/08/31 11:09:45;;;;;;;;;;;20.70;99.90;;;;;;5082199;28;19988;-69
2022/08/31 11:12:17;;;;;;;;;;;20.70;99.90;;;;;;5084544;28;20190;-69
2022/08/31 11:14:57;;;;;;;;;;;20.70;99.90;;;;;;5084092;28;19991;-69
2022/08/31 11:17:33;;;;;;;;;;;20.60;99.90;;;;;;5083832;28;19924;-69
2022/08/31 11:20:10;;;;;;;;;;;20.70;99.90;;;;;;5083951;28;19927;-69
2022/08/31 11:23:01;;;;;;;;;;;20.70;99.90;;;;;;5083648;28;19920;-69
2022/08/31 11:25:46;;;;;;;;;;;20.70;99.90;;;;;;5084485;28;19928;-69
2022/08/31 11:28:22;;;;;;;;;;;20.70;99.90;;;;;;5084192;28;19928;-68
2022/08/31 11:30:50;;;;;;;;;;;20.80;99.90;;;;;;5082846;28;19924;-69
2022/08/31 11:33:20;;;;;;;;;;;20.80;99.90;;;;;;5081505;28;20235;-68
2022/08/31 11:35:58;;;;;;;;;;;20.80;99.90;;;;;;5084000;28;20183;-68
2022/08/31 11:38:41;;;;;;;;;;;20.80;99.90;;;;;;5084151;28;19955;-68
2022/08/31 11:41:10;;;;;;;;;;;20.90;99.90;;;;;;5084041;28;20203;-68
2022/08/31 11:43:55;;;;;;;;;;;20.90;99.90;;;;;;5082824;28;20275;-68
2022/08/31 11:46:40;;;;;;;;;;;20.90;99.90;;;;;;5051600;28;19929;-69
2022/08/31 11:49:09;;;;;;;;;;;20.90;99.90;;;;;;5058397;28;19921;-70
2022/08/31 11:51:37;;;;;;;;;;;20.90;99.90;;;;;;5063429;28;19920;-68
2022/08/31 11:54:06;;;;;;;;;;;21.00;99.90;;;;;;5063176;28;20247;-69
2022/08/31 11:56:37;;;;;;;;;;;21.00;99.90;;;;;;5063575;28;19993;-68
2022/08/31 11:59:21;;;;;;;;;;;21.10;99.90;;;;;;5063766;28;19948;-68
2022/08/31 12:01:48;;;;;;;;;;;21.10;99.90;;;;;;5060934;28;19992;-68
2022/08/31 12:04:40;;;;;;;;;;;21.10;99.90;;;;;;5063048;28;20208;-68
2022/08/31 12:07:09;;;;;;;;;;;21.10;99.90;;;;;;5063739;28;20119;-69
2022/08/31 12:09:57;;;;;;;;;;;21.20;99.90;;;;;;5043818;28;19953;-69
2022/08/31 12:12:29;;;;;;;;;;;21.20;99.90;;;;;;5055465;28;19987;-69
2022/08/31 12:15:02;;;;;;;;;;;21.30;99.90;;;;;;5051499;28;19921;-69
2022/08/31 12:17:32;;;;;;;;;;;21.40;99.90;;;;;;5054254;28;19952;-69
2022/08/31 12:20:05;;;;;;;;;;;21.40;99.90;;;;;;5062034;28;19940;-69
2022/08/31 12:25:40;;;;;;;;;;;21.40;99.90;;;;;;5060048;28;19915;-69
2022/08/31 12:28:10;;;;;;;;;;;21.50;99.90;;;;;;5062668;28;19988;-69
2022/08/31 12:30:47;;;;;;;;;;;21.60;99.90;;;;;;5049271;28;19984;-69
2022/08/31 12:33:16;;;;;;;;;;;21.60;99.90;;;;;;5062580;28;20188;-69
2022/08/31 12:35:45;;;;;;;;;;;21.50;99.90;;;;;;5063227;28;19984;-68
2022/08/31 12:38:17;;;;;;;;;;;21.40;99.90;;;;;;5056189;28;20108;-69
2022/08/31 12:40:46;;;;;;;;;;;21.50;99.90;;;;;;5063139;28;19980;-69
2022/08/31 12:43:15;;;;;;;;;;;21.50;99.90;;;;;;5062530;28;19984;-69
2022/08/31 12:46:03;;;;;;;;;;;21.50;99.90;;;;;;5062499;28;19921;-69
2022/08/31 12:48:45;;;;;;;;;;;21.50;99.90;;;;;;5056925;28;19989;-69
2022/08/31 12:51:17;;;;;;;;;;;21.60;99.90;;;;;;5062784;28;19929;-72
2022/08/31 12:53:50;;;;;;;;;;;21.60;99.90;;;;;;5062060;28;19978;-71
2022/08/31 12:56:24;;;;;;;;;;;21.80;99.90;;;;;;5064023;28;19984;-69
2022/08/31 12:58:57;;;;;;;;;;;21.80;99.90;;;;;;5067017;28;19927;-69
2022/08/31 13:01:26;;;;;;;;;;;21.90;99.90;;;;;;5066871;28;19988;-69
2022/08/31 13:03:54;;;;;;;;;;;22.00;99.90;;;;;;5066334;28;20263;-69
2022/08/31 13:06:25;;;;;;;;;;;22.20;99.90;;;;;;5066874;28;20160;-68
2022/08/31 13:08:53;;;;;;;;;;;22.20;99.90;;;;;;5066811;28;19921;-69
2022/08/31 13:11:27;;;;;;;;;;;22.40;99.90;;;;;;5066750;28;19920;-69
2022/08/31 13:14:06;;;;;;;;;;;22.40;99.90;;;;;;5065511;28;20240;-68
2022/08/31 13:16:32;;;;;;;;;;;22.60;99.90;;;;;;5066824;28;19987;-69
2022/08/31 13:19:01;;;;;;;;;;;22.60;99.90;;;;;;5066925;28;19927;-69
2022/08/31 13:21:28;;;;;;;;;;;22.60;99.90;;;;;;5066693;28;19927;-69
2022/08/31 13:24:04;;;;;;;;;;;22.70;99.90;;;;;;5066407;28;19960;-69
2022/08/31 13:26:34;;;;;;;;;;;22.70;99.90;;;;;;5066632;28;19927;-69
2022/08/31 13:29:03;;;;;;;;;;;22.70;99.90;;;;;;5066629;28;19963;-68
2022/08/31 13:31:31;;;;;;;;;;;22.70;99.90;;;;;;5046248;28;19953;-70
2022/08/31 13:33:59;;;;;;;;;;;22.70;99.90;;;;;;5061132;28;19920;-68
2022/08/31 13:36:32;;;;;;;;;;;22.80;99.90;;;;;;5047844;28;19960;-72
2022/08/31 13:39:00;;;;;;;;;;;22.90;99.90;;;;;;5046567;28;20164;-68
2022/08/31 13:41:27;;;;;;;;;;;23.00;99.90;;;;;;5046400;28;19927;-69
2022/08/31 13:44:00;;;;;;;;;;;23.20;99.90;;;;;;5044939;28;20163;-69
2022/08/31 13:46:27;;;;;;;;;;;23.10;99.90;;;;;;5046066;28;19984;-69
2022/08/31 13:48:58;;;;;;;;;;;23.00;99.90;;;;;;5060871;28;19927;-69
2022/08/31 13:51:26;;;;;;;;;;;22.80;99.90;;;;;;5065643;28;19920;-69
2022/08/31 13:54:05;;;;;;;;;;;22.70;99.90;;;;;;5065293;28;20258;-68
2022/08/31 13:59:25;;;;;;;;;;;23.00;99.90;;;;;;5065620;28;19923;-66
2022/08/31 14:01:54;;;;;;;;;;;23.30;99.90;;;;;;5065665;28;19921;-66
2022/08/31 14:04:42;;;;;;;;;;;23.60;99.90;;;;;;5064812;28;19920;-66
2022/08/31 14:07:08;;;;;;;;;;;23.90;99.90;;;;;;5064755;28;20058;-67
2022/08/31 14:09:41;;;;;;;;;;;23.90;99.90;;;;;;5065241;28;19983;-66
2022/08/31 14:12:08;;;;;;;;;;;23.80;99.90;;;;;;5065861;28;19991;-66
2022/08/31 14:14:42;;;;;;;;;;;23.80;99.90;;;;;;5065080;28;19988;-67
2022/08/31 14:17:14;;;;;;;;;;;23.90;99.90;;;;;;5065274;28;19924;-67
2022/08/31 14:19:42;;;;;;;;;;;24.20;99.90;;;;;;5065384;28;19927;-67
2022/08/31 14:22:16;;;;;;;;;;;24.40;99.90;;;;;;5065383;28;19921;-67
2022/08/31 14:24:43;;;;;;;;;;;24.70;99.90;;;;;;5063068;28;20235;-67
2022/08/31 14:27:10;;;;;;;;;;;24.80;99.90;;;;;;5065332;28;19921;-67
2022/08/31 14:29:40;;;;;;;;;;;24.50;99.90;;;;;;5064720;28;20111;-67
2022/08/31 14:32:08;;;;;;;;;;;24.20;99.90;;;;;;5065018;28;19921;-67
2022/08/31 14:34:39;;;;;;;;;;;23.90;99.90;;;;;;5064398;28;19992;-66
2022/08/31 14:37:07;;;;;;;;;;;23.50;99.90;;;;;;5064795;28;19920;-66
2022/08/31 14:39:36;;;;;;;;;;;23.30;99.90;;;;;;5064891;28;20204;-67
2022/08/31 14:42:05;;;;;;;;;;;23.20;99.90;;;;;;5065022;28;19925;-67
2022/08/31 14:44:33;;;;;;;;;;;23.10;99.90;;;;;;5064443;28;19928;-67
2022/08/31 14:47:00;;;;;;;;;;;23.10;99.90;;;;;;5065202;28;20115;-66
2022/08/31 14:49:28;;;;;;;;;;;23.20;99.90;;;;;;5065264;28;19921;-66